x

9414763 - Oakland, Ca (lndc1) Weather Station

10:54pm - Wed 28th Sep 2016 All times are PDT. -7 hours from GMT.

  • Wind
    7mph, 10mph gusts
  • Air Temp 56°f
  • Sea Pressure 1015.1mb
  • 9414763 - Oakland, Ca
  • 9414763 - Oakland, Ca

More Historic Weather Station data

Upgrade to MSW Pro to gain access to the past 30 days of data for over 8000 Wavebouys and Weather Stations around the globe.

Join Pro

Comparision Forecast

View Surf forecast
   
Wed 09/28 10:54pm 7 10 mph 1015.1mb 56f
9:48pm 9 11 mph 1014.7mb 56f
9:36pm 8 10 mph 1014.7mb 56f
9:30pm 8 11 mph 1014.6mb 56f
9:00pm 5 8 mph 1014.3mb 56f
8:36pm 5 8 mph 1014mb 56f
8:30pm 7 9 mph 1013.9mb 56f
7:42pm 6 10 mph 1013.5mb 56f
7:24pm 7 11 mph 1013.3mb 57f
7:06pm 9 11 mph 1013.1mb 56f
7:00pm 8 10 mph 1013.1mb 57f
6:42pm 10 13 mph 1013mb 57f
6:36pm 10 13 mph 1012.8mb 57f
6:30pm 8 11 mph 1012.8mb 57f
6:24pm 8 11 mph 1012.8mb 57f
6:06pm 8 14 mph 1012.7mb 58f
5:54pm 8 11 mph 1012.6mb 59f
5:48pm 8 11 mph 1012.5mb 59f
5:36pm 6 7 mph 1012.4mb 60f
5:30pm 6 8 mph - 60f
5:18pm 7 13 mph 1012.4mb 60f
5:00pm 8 9 mph 1012.3mb 60f
4:54pm 5 8 mph 1012.3mb 60f
4:48pm 7 10 mph 1012.2mb -
4:42pm 7 9 mph 1012.3mb -
4:36pm 6 9 mph 1012.3mb -
4:30pm 6 11 mph 1012.3mb 60f
4:24pm 7 10 mph 1012.3mb 61f
4:18pm 7 10 mph 1012.3mb 61f
4:12pm 6 8 mph 1012.2mb 62f
4:06pm 5 9 mph 1012.3mb 62f
3:54pm 8 9 mph 1012.4mb 60f
3:42pm 7 9 mph 1012.4mb -
3:36pm 7 8 mph 1012.4mb -
3:18pm 8 10 mph 1012.5mb 61f
3:12pm 6 9 mph 1012.5mb 61f
2:48pm 7 9 mph 1012.5mb 62f
2:42pm 6 9 mph 1012.5mb 62f
2:18pm 8 10 mph 1012.5mb 62f
2:00pm 7 10 mph 1012.6mb 62f
1:48pm 7 11 mph 1012.6mb 62f
1:42pm 7 11 mph 1012.7mb 62f
1:24pm 8 11 mph 1012.7mb 62f
1:18pm 8 11 mph 1012.8mb 62f
1:12pm 9 13 mph 1012.8mb 62f
1:06pm 7 11 mph 1012.9mb 62f
1:00pm 8 13 mph 1012.9mb 62f
12:42pm 8 11 mph 1012.9mb 62f
12:24pm 6 9 mph 1012.9mb 63f
12:18pm 6 10 mph 1012.9mb 62f
12:12pm 9 11 mph 1012.9mb 62f
12:06pm 9 11 mph 1012.9mb 62f
12:00pm 8 9 mph 1012.9mb 63f
11:48am 6 7 mph 1013mb 63f
11:30am 5 6 mph 1013.1mb 63f
11:12am 5 6 mph 1013.1mb 62f
11:06am 5 7 mph 1013.1mb 62f
10:54am 6 7 mph 1013.1mb 61f
10:48am 6 7 mph 1013.2mb 61f
10:42am 6 8 mph 1013.2mb 61f
10:36am 6 7 mph 1013.1mb 61f
10:30am 7 8 mph 1013.1mb 61f
10:24am 7 8 mph 1013.2mb 60f
10:18am 6 8 mph 1013.2mb 60f
10:06am 6 8 mph 1013.1mb 60f
10:00am 6 8 mph 1013.1mb 60f
9:36am 3 6 mph 1012.9mb 60f
9:30am 5 6 mph 1012.8mb 60f
9:24am 5 7 mph 1012.8mb 59f
9:06am 5 7 mph 1012.7mb 59f
8:24am 1 3 mph 1012.6mb 59f
8:12am 3 5 mph 1012.5mb 58f
7:54am 2 5 mph 1012.4mb 58f
6:54am 3 6 mph 1011.9mb 57f
6:48am 5 6 mph 1011.8mb 57f
6:18am 3 5 mph 1011.7mb 57f
4:42am 6 7 mph 1011.1mb 57f
4:24am 5 7 mph 1011mb 57f
3:30am 5 6 mph 1011.1mb 57f
3:18am 3 5 mph 1011.2mb 57f
3:12am 3 6 mph 1011.2mb 57f
3:00am 3 6 mph 1011.3mb 57f
2:48am 5 6 mph 1011.3mb 57f
2:42am 5
mph
1011.3mb 57f
2:24am 3 5 mph 1011.4mb 58f
2:18am 2 3 mph 1011.4mb 58f
2:12am 3 5 mph 1011.4mb 58f
2:00am 3 5 mph 1011.3mb 58f
1:54am 5 6 mph 1011.3mb 58f
1:36am 5 6 mph 1011.3mb 58f
1:30am 3 6 mph 1011.3mb 58f
1:24am 5 6 mph 1011.3mb 58f
1:18am 3 6 mph 1011.3mb 58f
1:06am 5 6 mph 1011.3mb 58f
1:00am 3 5 mph 1011.4mb 58f
12:54am 2 6 mph 1011.4mb 58f
12:42am 5 6 mph 1011.4mb 58f
12:30am 2 5 mph 1011.4mb 58f
12:18am 3 5 mph 1011.5mb 58f
12:12am 3 5 mph 1011.4mb 59f
12:06am 3
mph
1011.5mb 59f
Tue 09/27 11:54pm 3
mph
1011.5mb 59f
11:48pm 3 5 mph 1011.5mb 59f
11:36pm 2 3 mph 1011.5mb 60f
11:30pm 2 3 mph 1011.4mb 59f
11:12pm 3 5 mph 1011.4mb 59f
11:00pm 3 6 mph 1011.4mb 59f
10:54pm 5 6 mph 1011.4mb 58f
10:42pm 3 5 mph 1011.5mb -
10:30pm 3 6 mph 1011.4mb 59f
10:24pm 5 6 mph 1011.4mb 59f
10:18pm 5 6 mph 1011.4mb 59f
10:12pm 3 5 mph 1011.3mb 59f
8:42pm 3 5 mph 1010.8mb 62f
8:30pm 5 7 mph 1010.7mb 62f
8:24pm 6 7 mph 1010.6mb 62f
8:18pm 6 7 mph 1010.6mb 62f
8:06pm 6 7 mph 1010.4mb 62f
8:00pm 5 6 mph 1010.4mb 62f
7:42pm 5 7 mph 1010.3mb 63f
7:36pm 6 8 mph 1010.3mb 63f
7:30pm 5 8 mph 1010.3mb 64f
7:24pm 5 7 mph 1010.3mb 64f
7:18pm 6 9 mph 1010.2mb 64f
7:12pm 6 7 mph 1010.2mb 64f
7:00pm 7 9 mph 1010.1mb 65f
6:48pm 6 7 mph 1010mb 65f
6:36pm 6 9 mph 1010mb 66f
6:24pm 6 8 mph 1009.9mb 67f
6:18pm 6 8 mph - 67f
6:06pm 6 8 mph - 68f
6:00pm 5 8 mph 1010mb 68f
5:42pm 8 10 mph 1010mb 69f
5:36pm 8 10 mph 1010mb 70f
5:30pm 7 9 mph 1010mb 71f
5:24pm 7 8 mph 1010mb 72f
5:06pm 3 6 mph 1010.1mb 73f
4:48pm 6 9 mph 1010.1mb -
4:42pm 6 9 mph 1010.1mb -
4:36pm 6 9 mph 1010.1mb -
4:30pm 7 9 mph 1010.3mb 75f
4:18pm 8 11 mph 1010.3mb 76f
3:48pm 6 7 mph 1010.5mb 77f
3:36pm 6 8 mph 1010.7mb 75f
3:30pm 7 9 mph 1010.7mb 75f
3:24pm 8 9 mph 1010.8mb 75f
3:12pm 7 9 mph 1010.8mb 75f
2:54pm 7 9 mph 1010.9mb 75f
2:42pm 7 10 mph - 75f
2:36pm 9 11 mph - 74f
2:30pm 8 10 mph 1011mb 75f
2:18pm 7 11 mph 1011.1mb 75f
2:06pm 7 9 mph 1011.2mb 75f
2:00pm 8 9 mph 1011.3mb 74f
1:48pm 9 10 mph 1011.3mb 75f
1:42pm 7 10 mph 1011.4mb 75f
1:24pm 6 10 mph 1011.6mb 75f
1:06pm 6 8 mph 1011.8mb 76f
1:00pm 6 8 mph 1011.9mb 76f
12:54pm 6 9 mph 1011.9mb 76f
12:42pm 6 8 mph 1012.1mb 74f
12:36pm 6 8 mph 1012.2mb 75f
12:18pm 5 8 mph 1012.2mb 75f
12:06pm 5 6 mph 1012.4mb 75f
12:00pm 5 7 mph 1012.5mb 75f
11:48am 5 7 mph 1012.6mb 75f
11:42am 5 7 mph 1012.6mb 75f
11:36am 3 6 mph 1012.7mb 75f
11:30am 5 6 mph 1012.8mb 75f
11:18am 5 6 mph 1012.9mb 75f
11:00am 2 5 mph 1013mb 74f
10:42am 2 5 mph 1013.2mb 72f
10:24am 6
mph
1013.3mb 70f
10:06am 5 6 mph 1013.4mb 70f
9:48am 3 5 mph 1013.4mb 69f
9:24am 3 5 mph 1013.2mb 67f
9:12am 5 6 mph 1013mb 67f
9:00am 5 6 mph 1013mb 67f
8:54am 5 6 mph 1012.9mb 66f
8:48am 5 6 mph 1012.9mb 66f
8:36am 6 7 mph 1013mb 65f
8:18am 3 5 mph 1012.9mb 65f
8:06am 3 5 mph 1012.9mb 65f
7:54am 3 5 mph 1012.8mb 65f
7:42am 3 5 mph 1012.7mb 64f
7:00am 5 6 mph 1012.6mb 64f
6:54am 5 6 mph 1012.6mb 64f
6:42am 5 6 mph 1012.5mb 65f
6:24am 3 5 mph 1012.4mb 65f
6:12am 2 3 mph 1012.4mb 65f
5:54am 2 3 mph 1012.4mb 65f
5:36am 2 5 mph 1012.4mb 65f
5:18am 3
mph
1012.5mb 65f
4:18am 3 5 mph 1012.4mb 67f
4:06am 2 3 mph 1012.5mb 68f
4:00am  -  2 mph 1012.5mb 68f
3:48am 1 2 mph 1012.5mb 69f
3:30am  -  mph 1012.5mb 68f
3:18am  -  1 mph 1012.5mb 68f
3:00am  -  2 mph 1012.5mb 69f
2:54am  -  1 mph 1012.5mb 69f
2:36am  -  mph 1012.7mb 68f
2:24am 1 2 mph 1012.7mb 69f
2:18am 1 2 mph 1012.8mb 69f
2:00am 2 5 mph 1012.8mb 70f
1:54am 1 3 mph 1012.8mb 70f
1:48am 1 3 mph 1012.9mb 70f
1:42am 1 2 mph 1012.9mb 70f
1:36am  -  2 mph 1012.9mb 70f
1:24am 2 3 mph 1012.9mb 69f
1:18am 1 2 mph 1013mb 70f
1:12am  -  2 mph 1013mb 71f
1:06am 1 2 mph 1013.1mb 70f
1:00am  -  1 mph 1013.1mb 71f
12:48am 2 3 mph 1013.2mb 71f
12:30am 1 2 mph 1013.2mb 71f
12:24am 1
mph
1013.2mb 71f
12:12am  -  1 mph 1013.3mb 70f
12:06am  -  1 mph 1013.4mb 71f
12:00am  -  1 mph 1013.4mb 70f
Mon 09/26 11:54pm  -  1 mph 1013.4mb 70f
11:30pm  -  1 mph 1013.5mb 71f
11:24pm  -  2 mph 1013.4mb 71f
11:12pm 3
mph
1013.5mb 71f
10:54pm  -  1 mph 1013.5mb 73f
10:48pm  -  2 mph 1013.5mb -
10:42pm 2 3 mph 1013.5mb -
10:18pm 2
mph
1013.5mb 75f
10:06pm 2
mph
1013.5mb 75f
9:54pm 2
mph
1013.4mb 75f
9:42pm 1 3 mph 1013.3mb 76f
9:36pm 3 6 mph 1013.3mb 75f
8:30pm 3 6 mph 1013.1mb 78f
8:06pm 5 6 mph 1012.9mb 80f
7:54pm 2 3 mph 1013mb 80f
7:48pm 2 3 mph 1012.9mb 80f
7:42pm 2 3 mph 1012.9mb 80f
7:18pm  -  1 mph 1012.9mb 80f
7:12pm 2 3 mph 1012.8mb 81f
6:54pm 6 8 mph 1012.7mb 85f
6:48pm 7 9 mph 1012.7mb 85f
6:36pm 5 7 mph 1012.7mb 86f
6:24pm 5 8 mph 1012.8mb 87f
6:12pm  -  mph 1012.9mb 87f
5:54pm 5 7 mph 1012.9mb 88f
5:42pm 6 8 mph 1012.9mb 89f
5:30pm 3 6 mph 1012.9mb 88f
5:24pm 5 7 mph 1012.9mb 88f
5:12pm  -  mph 1013.1mb 88f
4:54pm 6 8 mph 1013.2mb 87f
4:18pm 6 9 mph 1013.3mb 91f
4:06pm 6 9 mph 1013.4mb 91f
4:00pm 6 8 mph 1013.5mb 90f
3:36pm 7 9 mph 1013.7mb -
3:30pm 5 7 mph - 89f
3:12pm 7 9 mph 1014mb 88f
3:06pm 5 7 mph 1014mb 88f
3:00pm 5 7 mph 1014mb 88f
2:48pm 6 8 mph 1014.2mb 88f
2:42pm 6 9 mph 1014.2mb 88f
2:12pm 6 9 mph 1014.4mb 87f
2:06pm 6 8 mph 1014.5mb 87f
1:48pm 6 8 mph 1014.8mb 87f
1:42pm 5 8 mph 1014.9mb 86f
1:30pm 7 9 mph 1015.1mb 85f
1:24pm 7 9 mph 1015.2mb 85f
1:18pm 7 9 mph 1015.2mb 85f
1:12pm 5 7 mph 1015.3mb 85f
1:06pm 5 9 mph 1015.4mb 84f
12:54pm 5 7 mph 1015.5mb 84f
12:48pm 5 7 mph 1015.6mb 83f
12:42pm 6 9 mph 1015.6mb 82f
12:30pm 6 9 mph 1015.7mb 82f
12:18pm 7 9 mph 1015.7mb 82f
12:12pm 6 7 mph 1015.7mb 83f
12:06pm 5 7 mph 1015.7mb 82f
12:00pm 6 7 mph 1015.8mb 81f
11:42am 5 8 mph 1015.9mb 80f
11:24am 6 8 mph 1016.2mb 78f
11:06am 3 7 mph 1016.2mb 77f
11:00am 6 7 mph 1016.2mb 76f
10:54am 6 8 mph 1016.3mb 76f
10:48am 5 7 mph 1016.3mb 75f
10:30am 5 6 mph 1016.1mb 73f
10:24am 5 7 mph 1016.1mb 73f
10:18am 5 7 mph 1016.1mb 73f
10:06am 3 5 mph 1016.1mb 73f
8:00am 3 5 mph 1015.6mb 67f
7:48am 3 5 mph 1015.7mb 67f
6:30am 2 3 mph 1014.9mb 67f
6:00am 3 5 mph 1014.8mb 67f
5:48am 5 6 mph 1014.8mb 68f
4:18am  -  1 mph 1014.1mb 67f
4:06am  -  mph 1014.1mb 68f
4:00am  -  mph 1014.1mb 69f
3:36am  -  mph 1014.1mb 69f
2:30am 1 2 mph 1014.6mb 70f
2:12am  -  1 mph 1014.6mb 70f
2:06am  -  1 mph 1014.6mb 71f
2:00am 2 3 mph 1014.6mb 71f
1:54am 1 2 mph 1014.6mb 71f
1:48am 2 3 mph 1014.6mb 72f
1:42am 1 5 mph 1014.6mb 71f
1:24am 2 3 mph 1014.5mb 71f
1:18am  -  3 mph 1014.6mb 70f
1:12am  -  2 mph 1014.6mb 71f
1:06am 1 3 mph 1014.6mb 71f
1:00am 1 3 mph 1014.6mb 71f
12:54am  -  3 mph 1014.6mb 71f
12:42am 1 5 mph 1014.6mb 71f
12:36am 1 3 mph 1014.6mb 71f
12:30am 2 3 mph 1014.7mb 71f
12:24am 1 5 mph 1014.6mb 72f
12:18am 3 6 mph 1014.7mb 72f
12:12am 5 6 mph 1014.7mb 71f
Sun 09/25 11:36pm 3
mph
1014.7mb -
11:18pm  -  1 mph 1014.6mb 72f
11:06pm  -  mph 1014.6mb 70f
10:54pm 1 2 mph 1014.7mb 71f
10:42pm  -  1 mph 1014.8mb -
10:36pm  -  3 mph 1014.8mb -
10:24pm  -  2 mph 1014.8mb 72f
10:18pm 1
mph
1014.8mb 72f
10:06pm 2 3 mph 1015mb 72f
9:54pm 3 5 mph 1015mb 73f
9:48pm 3
mph
1015mb 73f
9:36pm 3 5 mph 1015.1mb 73f
9:30pm 2 3 mph 1015.1mb 73f
9:18pm 2 5 mph 1015.1mb 73f
9:00pm 2 5 mph 1015.1mb 73f
8:48pm 5 6 mph 1015.1mb 73f
8:30pm 7 8 mph 1015.1mb 73f
8:18pm 5 7 mph 1015mb 74f
8:12pm 6 9 mph 1015mb 74f
8:06pm 6 7 mph 1014.9mb 75f
7:54pm 6 7 mph 1014.8mb 77f
7:48pm 5 7 mph 1014.6mb 77f
7:42pm 5 8 mph 1014.6mb 78f
7:30pm 5 7 mph 1014.6mb 78f
7:24pm 6 7 mph 1014.6mb 79f
7:18pm 3 5 mph - 80f
7:06pm 2 3 mph - 81f
7:00pm 3
mph
1014.6mb 81f
6:48pm 2 3 mph - 82f
5:30pm 3 6 mph 1014.6mb 88f
5:24pm 6 8 mph 1014.7mb 86f
5:12pm 3 7 mph 1014.7mb 89f
5:06pm 5 6 mph 1014.7mb 89f
5:00pm 5 7 mph 1014.8mb 88f
4:54pm 2 8 mph 1014.8mb 87f
4:42pm 8 10 mph 1014.9mb -
4:36pm 6 9 mph 1014.9mb -
4:30pm 5 7 mph - 87f
4:06pm 7 11 mph 1015.2mb 87f
3:48pm 5 8 mph 1015.3mb -
3:24pm 6 7 mph 1015.5mb 88f
3:12pm 6 9 mph 1015.5mb 89f
2:54pm 3 6 mph 1015.6mb 87f
2:48pm 5 6 mph 1015.6mb 86f
2:42pm 3 6 mph 1015.7mb 85f
2:30pm 6 7 mph 1015.8mb 85f
1:48pm 2 3 mph 1016.3mb 82f
1:42pm 3 6 mph 1016.5mb 81f
1:30pm 6
mph
1016.6mb 80f
1:24pm 6 7 mph 1016.6mb 80f
1:18pm 7 9 mph 1016.7mb 80f
1:12pm 8 9 mph 1016.7mb 78f
1:06pm 8 10 mph 1016.9mb 78f
12:48pm 8 9 mph 1016.9mb 81f
12:30pm 2 11 mph 1016.9mb 86f
12:24pm  -  5 mph 1016.9mb 86f
12:12pm 2 6 mph 1017mb 84f
12:06pm 3 7 mph 1017mb 84f
12:00pm 5 8 mph 1017.1mb 82f
11:42am 6 9 mph 1017.3mb 80f
11:36am 3 14 mph 1017.4mb 82f
11:24am 7 8 mph 1017.5mb 80f
11:18am 5 7 mph 1017.6mb 77f
11:12am 5 7 mph 1017.6mb 76f
10:54am 2 5 mph 1017.7mb 74f
10:42am 5 6 mph 1017.7mb 72f
10:30am 5 6 mph 1017.6mb 71f
10:24am 3 5 mph 1017.7mb 71f
10:12am 5 6 mph 1017.7mb 70f
10:06am 3 5 mph 1017.6mb 70f
10:00am 3 5 mph 1017.6mb 69f
9:54am 3 6 mph 1017.7mb 68f
9:42am 6
mph
1017.6mb 68f
9:36am 3 7 mph 1017.6mb 68f
9:24am 2 5 mph 1017.5mb 67f
9:18am 2 6 mph 1017.4mb 67f
9:06am 5
mph
1017.4mb 66f
9:00am 3 5 mph 1017.4mb 66f
8:48am 3 6 mph 1017.2mb 66f
8:42am 2 5 mph 1017.2mb 66f
8:36am 2 3 mph 1017.3mb 65f
8:30am 2 3 mph 1017.3mb 65f
8:24am 2 5 mph 1017.2mb 65f
8:00am 2 3 mph 1017.2mb 64f
7:36am 1 2 mph 1017.1mb 63f